sensor_id;sensor_type;location;lat;lon;timestamp;pressure;altitude;pressure_sealevel;temperature;humidity
50250;BME280;36133;42.522;27.456;2023-02-16T00:01:27;102814.88;;;2.33;56.25
50250;BME280;36133;42.522;27.456;2023-02-16T00:03:54;102880.97;;;2.60;56.42
50250;BME280;36133;42.522;27.456;2023-02-16T00:06:20;102820.22;;;2.16;57.34
50250;BME280;36133;42.522;27.456;2023-02-16T00:08:49;102780.03;;;2.03;57.34
50250;BME280;36133;42.522;27.456;2023-02-16T00:11:18;102560.09;;;0.50;58.53
50250;BME280;36133;42.522;27.456;2023-02-16T00:14:04;102727.81;;;1.51;59.59
50250;BME280;36133;42.522;27.456;2023-02-16T00:16:31;102619.19;;;0.72;59.56
50250;BME280;36133;42.522;27.456;2023-02-16T00:18:56;102741.28;;;1.98;58.97
50250;BME280;36133;42.522;27.456;2023-02-16T00:21:22;102882.16;;;2.21;60.24
50250;BME280;36133;42.522;27.456;2023-02-16T00:23:47;102715.75;;;1.43;60.03
50250;BME280;36133;42.522;27.456;2023-02-16T00:26:16;102833.97;;;2.09;60.80
50250;BME280;36133;42.522;27.456;2023-02-16T00:28:42;102804.84;;;2.21;60.97
50250;BME280;36133;42.522;27.456;2023-02-16T00:31:15;102855.22;;;2.10;61.25
50250;BME280;36133;42.522;27.456;2023-02-16T00:33:41;102875.69;;;2.10;61.53
50250;BME280;36133;42.522;27.456;2023-02-16T00:36:07;102879.06;;;2.29;61.68
50250;BME280;36133;42.522;27.456;2023-02-16T00:38:33;102771.66;;;1.43;62.40
50250;BME280;36133;42.522;27.456;2023-02-16T00:40:58;102594.75;;;0.29;62.23
50250;BME280;36133;42.522;27.456;2023-02-16T00:43:27;102870.78;;;2.18;62.03
50250;BME280;36133;42.522;27.456;2023-02-16T00:45:53;102640.03;;;0.45;62.58
50250;BME280;36133;42.522;27.456;2023-02-16T00:48:20;102704.31;;;0.90;63.01
50250;BME280;36133;42.522;27.456;2023-02-16T00:50:46;102796.50;;;1.61;61.99
50250;BME280;36133;42.522;27.456;2023-02-16T00:53:12;102417.25;;;-0.69;63.02
50250;BME280;36133;42.522;27.456;2023-02-16T00:55:38;102686.41;;;0.93;62.85
50250;BME280;36133;42.522;27.456;2023-02-16T00:58:23;102622.47;;;0.60;62.68
50250;BME280;36133;42.522;27.456;2023-02-16T01:00:52;102534.22;;;0.00;62.90
50250;BME280;36133;42.522;27.456;2023-02-16T01:03:22;102872.66;;;2.16;63.29
50250;BME280;36133;42.522;27.456;2023-02-16T01:05:49;102709.88;;;1.20;63.72
50250;BME280;36133;42.522;27.456;2023-02-16T01:08:34;102794.00;;;1.91;63.51
50250;BME280;36133;42.522;27.456;2023-02-16T01:11:18;102825.84;;;2.27;63.54
50250;BME280;36133;42.522;27.456;2023-02-16T01:13:48;102837.91;;;2.34;63.66
50250;BME280;36133;42.522;27.456;2023-02-16T01:16:20;102189.00;;;-1.20;62.86
50250;BME280;36133;42.522;27.456;2023-02-16T01:18:47;102823.72;;;2.34;62.95
50250;BME280;36133;42.522;27.456;2023-02-16T01:21:13;102778.78;;;2.11;62.41
50250;BME280;36133;42.522;27.456;2023-02-16T01:23:39;102857.84;;;2.76;61.75
50250;BME280;36133;42.522;27.456;2023-02-16T01:26:09;102609.22;;;1.92;59.83
50250;BME280;36133;42.522;27.456;2023-02-16T01:28:36;102595.16;;;2.06;58.44
50250;BME280;36133;42.522;27.456;2023-02-16T01:31:02;102845.16;;;3.87;57.07
50250;BME280;36133;42.522;27.456;2023-02-16T01:33:27;102557.81;;;2.52;55.68
50250;BME280;36133;42.522;27.456;2023-02-16T01:35:55;102806.16;;;3.24;57.02
50250;BME280;36133;42.522;27.456;2023-02-16T01:38:27;102782.75;;;3.14;57.35
50250;BME280;36133;42.522;27.456;2023-02-16T01:41:04;102801.75;;;3.98;55.31
50250;BME280;36133;42.522;27.456;2023-02-16T01:43:41;102649.06;;;2.73;54.64
50250;BME280;36133;42.522;27.456;2023-02-16T01:46:20;102781.28;;;3.08;55.76
50250;BME280;36133;42.522;27.456;2023-02-16T01:48:48;102703.66;;;2.35;55.91
50250;BME280;36133;42.522;27.456;2023-02-16T01:52:04;102830.56;;;2.87;56.85
50250;BME280;36133;42.522;27.456;2023-02-16T01:54:37;102848.28;;;2.88;57.56
50250;BME280;36133;42.522;27.456;2023-02-16T02:02:33;102870.63;;;3.64;54.28
50250;BME280;36133;42.522;27.456;2023-02-16T02:05:06;102811.63;;;3.67;53.43
50250;BME280;36133;42.522;27.456;2023-02-16T02:07:55;102853.47;;;3.07;55.56
50250;BME280;36133;42.522;27.456;2023-02-16T02:15:30;102854.53;;;3.80;54.20
50250;BME280;36133;42.522;27.456;2023-02-16T02:17:56;102795.03;;;3.32;54.43
50250;BME280;36133;42.522;27.456;2023-02-16T02:20:33;102651.50;;;2.30;54.48
50250;BME280;36133;42.522;27.456;2023-02-16T02:37:35;102684.03;;;2.37;54.96
50250;BME280;36133;42.522;27.456;2023-02-16T02:40:18;102858.09;;;3.19;55.20
50250;BME280;36133;42.522;27.456;2023-02-16T02:42:54;102845.25;;;3.26;54.96
50250;BME280;36133;42.522;27.456;2023-02-16T02:45:35;102770.34;;;2.67;55.05
50250;BME280;36133;42.522;27.456;2023-02-16T02:48:02;102845.13;;;3.73;53.73
50250;BME280;36133;42.522;27.456;2023-02-16T02:50:36;102613.50;;;1.79;54.33
50250;BME280;36133;42.522;27.456;2023-02-16T02:53:07;102793.44;;;2.35;56.02
50250;BME280;36133;42.522;27.456;2023-02-16T02:55:37;102791.94;;;2.14;56.49
50250;BME280;36133;42.522;27.456;2023-02-16T02:58:24;102820.97;;;2.35;57.00
50250;BME280;36133;42.522;27.456;2023-02-16T03:01:12;102642.94;;;1.27;56.76
50250;BME280;36133;42.522;27.456;2023-02-16T03:03:43;102815.28;;;3.20;54.91
50250;BME280;36133;42.522;27.456;2023-02-16T03:06:15;102762.13;;;2.39;55.96
50250;BME280;36133;42.522;27.456;2023-02-16T03:08:45;102814.47;;;2.73;56.26
50250;BME280;36133;42.522;27.456;2023-02-16T03:11:15;102603.69;;;1.48;56.26
50250;BME280;36133;42.522;27.456;2023-02-16T03:14:04;102831.09;;;2.29;57.50
50250;BME280;36133;42.522;27.456;2023-02-16T03:16:48;102761.19;;;1.23;58.00
50250;BME280;36133;42.522;27.456;2023-02-16T03:19:16;102838.94;;;1.64;59.26
50250;BME280;36133;42.522;27.456;2023-02-16T03:22:01;102837.34;;;1.43;59.42
50250;BME280;36133;42.522;27.456;2023-02-16T03:24:46;102639.16;;;0.27;59.14
50250;BME280;36133;42.522;27.456;2023-02-16T03:27:37;102847.75;;;1.30;59.90
50250;BME280;36133;42.522;27.456;2023-02-16T03:30:23;102819.16;;;1.16;59.56
50250;BME280;36133;42.522;27.456;2023-02-16T03:32:51;102711.28;;;0.56;60.59
50250;BME280;36133;42.522;27.456;2023-02-16T03:35:17;102747.97;;;0.31;61.94
50250;BME280;36133;42.522;27.456;2023-02-16T03:37:43;102833.38;;;0.98;62.80
50250;BME280;36133;42.522;27.456;2023-02-16T03:40:12;102563.47;;;-0.56;63.02
50250;BME280;36133;42.522;27.456;2023-02-16T03:42:58;102840.34;;;1.01;64.29
50250;BME280;36133;42.522;27.456;2023-02-16T03:45:25;102829.34;;;0.90;64.10
50250;BME280;36133;42.522;27.456;2023-02-16T03:47:51;102807.38;;;0.67;64.90
50250;BME280;36133;42.522;27.456;2023-02-16T03:50:16;102592.72;;;-0.97;65.77
50250;BME280;36133;42.522;27.456;2023-02-16T03:52:42;102771.59;;;0.55;64.32
50250;BME280;36133;42.522;27.456;2023-02-16T03:55:08;102592.63;;;-0.75;64.74
50250;BME280;36133;42.522;27.456;2023-02-16T03:57:33;102528.78;;;-1.51;64.99
50250;BME280;36133;42.522;27.456;2023-02-16T03:59:59;102538.72;;;-1.35;64.67
50250;BME280;36133;42.522;27.456;2023-02-16T04:02:26;102872.63;;;0.55;64.83
50250;BME280;36133;42.522;27.456;2023-02-16T04:04:51;102860.31;;;0.72;64.35
50250;BME280;36133;42.522;27.456;2023-02-16T04:07:17;102678.47;;;-0.37;64.16
50250;BME280;36133;42.522;27.456;2023-02-16T04:09:42;102760.66;;;0.05;64.21
50250;BME280;36133;42.522;27.456;2023-02-16T04:12:08;102810.25;;;0.44;63.71
50250;BME280;36133;42.522;27.456;2023-02-16T04:14:53;102822.22;;;0.15;64.91
50250;BME280;36133;42.522;27.456;2023-02-16T04:17:19;102846.16;;;0.34;65.50
50250;BME280;36133;42.522;27.456;2023-02-16T04:19:44;102877.66;;;0.80;64.82
50250;BME280;36133;42.522;27.456;2023-02-16T04:22:10;102565.06;;;-1.12;65.09
50250;BME280;36133;42.522;27.456;2023-02-16T04:24:35;102669.03;;;-0.63;65.18
50250;BME280;36133;42.522;27.456;2023-02-16T04:27:01;102690.19;;;-0.62;65.39
50250;BME280;36133;42.522;27.456;2023-02-16T04:29:26;102669.38;;;-0.71;65.23
50250;BME280;36133;42.522;27.456;2023-02-16T04:31:53;102697.56;;;-0.68;65.38
50250;BME280;36133;42.522;27.456;2023-02-16T04:34:19;102725.88;;;-0.69;66.03
50250;BME280;36133;42.522;27.456;2023-02-16T04:36:44;102727.72;;;-0.50;65.33
50250;BME280;36133;42.522;27.456;2023-02-16T04:39:10;102740.59;;;-0.62;65.75
50250;BME280;36133;42.522;27.456;2023-02-16T04:41:35;102704.03;;;-0.75;64.68
50250;BME280;36133;42.522;27.456;2023-02-16T04:44:01;102867.47;;;0.32;65.30
50250;BME280;36133;42.522;27.456;2023-02-16T04:46:26;102811.66;;;0.13;64.79
50250;BME280;36133;42.522;27.456;2023-02-16T04:48:52;102870.19;;;0.51;64.75
50250;BME280;36133;42.522;27.456;2023-02-16T04:51:18;102831.84;;;0.36;65.00
50250;BME280;36133;42.522;27.456;2023-02-16T04:53:43;102762.88;;;-0.25;65.41
50250;BME280;36133;42.522;27.456;2023-02-16T04:56:10;102628.56;;;-0.68;65.21
50250;BME280;36133;42.522;27.456;2023-02-16T04:58:36;102883.84;;;1.00;64.46
50250;BME280;36133;42.522;27.456;2023-02-16T05:01:02;102667.91;;;-0.39;64.26
50250;BME280;36133;42.522;27.456;2023-02-16T05:03:27;102833.53;;;0.57;64.36
50250;BME280;36133;42.522;27.456;2023-02-16T05:05:53;102794.22;;;0.64;63.92
50250;BME280;36133;42.522;27.456;2023-02-16T05:08:18;102740.53;;;-0.01;64.77
50250;BME280;36133;42.522;27.456;2023-02-16T05:10:44;102882.50;;;1.27;64.16
50250;BME280;36133;42.522;27.456;2023-02-16T05:13:10;102895.41;;;1.54;63.04
50250;BME280;36133;42.522;27.456;2023-02-16T05:15:55;102702.13;;;0.80;61.65
50250;BME280;36133;42.522;27.456;2023-02-16T05:18:20;102877.88;;;1.84;60.60
50250;BME280;36133;42.522;27.456;2023-02-16T05:20:46;102747.00;;;0.69;62.06
50250;BME280;36133;42.522;27.456;2023-02-16T05:23:30;102730.09;;;0.70;61.67
50250;BME280;36133;42.522;27.456;2023-02-16T05:25:55;102893.75;;;1.68;61.31
50250;BME280;36133;42.522;27.456;2023-02-16T05:28:21;102841.59;;;1.99;60.04
50250;BME280;36133;42.522;27.456;2023-02-16T05:30:46;102843.00;;;1.37;60.24
50250;BME280;36133;42.522;27.456;2023-02-16T05:33:12;102774.69;;;1.01;60.53
50250;BME280;36133;42.522;27.456;2023-02-16T05:35:37;102768.78;;;0.95;60.70
50250;BME280;36133;42.522;27.456;2023-02-16T05:38:02;102656.75;;;0.30;60.30
50250;BME280;36133;42.522;27.456;2023-02-16T05:40:28;102928.59;;;2.00;60.67
50250;BME280;36133;42.522;27.456;2023-02-16T05:42:54;102898.72;;;2.11;59.81
50250;BME280;36133;42.522;27.456;2023-02-16T05:45:20;102918.16;;;2.13;60.09
50250;BME280;36133;42.522;27.456;2023-02-16T05:47:45;102882.50;;;1.98;59.75
50250;BME280;36133;42.522;27.456;2023-02-16T05:50:11;102893.75;;;1.68;60.50
50250;BME280;36133;42.522;27.456;2023-02-16T05:52:36;102864.16;;;1.74;60.01
50250;BME280;36133;42.522;27.456;2023-02-16T05:55:02;102867.94;;;1.88;59.79
50250;BME280;36133;42.522;27.456;2023-02-16T05:57:28;102913.81;;;2.27;59.32
50250;BME280;36133;42.522;27.456;2023-02-16T05:59:54;102917.56;;;2.74;57.93
50250;BME280;36133;42.522;27.456;2023-02-16T06:02:19;102907.72;;;3.23;56.44
50250;BME280;36133;42.522;27.456;2023-02-16T06:04:45;102730.31;;;2.67;55.05
50250;BME280;36133;42.522;27.456;2023-02-16T06:07:10;102925.44;;;3.86;54.11
50250;BME280;36133;42.522;27.456;2023-02-16T06:09:36;102796.59;;;3.80;52.80
50250;BME280;36133;42.522;27.456;2023-02-16T06:12:01;102843.41;;;4.16;52.16
50250;BME280;36133;42.522;27.456;2023-02-16T06:14:27;102758.72;;;3.44;52.56
50250;BME280;36133;42.522;27.456;2023-02-16T06:16:52;102647.09;;;3.20;52.29
50250;BME280;36133;42.522;27.456;2023-02-16T06:19:18;102887.81;;;5.31;49.97
50250;BME280;36133;42.522;27.456;2023-02-16T06:21:47;102893.28;;;5.29;49.51
50250;BME280;36133;42.522;27.456;2023-02-16T06:24:13;102761.69;;;4.67;49.62
50250;BME280;36133;42.522;27.456;2023-02-16T06:26:39;102925.44;;;5.56;49.76
50250;BME280;36133;42.522;27.456;2023-02-16T06:29:05;102909.09;;;5.20;50.24
50250;BME280;36133;42.522;27.456;2023-02-16T06:31:31;102925.31;;;5.45;50.26
50250;BME280;36133;42.522;27.456;2023-02-16T06:37:18;102894.91;;;5.59;49.56
50250;BME280;36133;42.522;27.456;2023-02-16T06:39:44;102916.38;;;6.88;47.51
50250;BME280;36133;42.522;27.456;2023-02-16T06:42:09;102740.63;;;5.68;47.28
50250;BME280;36133;42.522;27.456;2023-02-16T06:44:35;102729.03;;;5.42;48.13
50250;BME280;36133;42.522;27.456;2023-02-16T06:47:01;102912.22;;;7.20;46.35
50250;BME280;36133;42.522;27.456;2023-02-16T06:49:27;102916.78;;;7.68;45.93
50250;BME280;36133;42.522;27.456;2023-02-16T06:51:52;102854.19;;;5.79;49.50
50250;BME280;36133;42.522;27.456;2023-02-16T06:54:18;102907.81;;;6.83;47.36
50250;BME280;36133;42.522;27.456;2023-02-16T06:56:44;102634.31;;;4.78;48.18
50250;BME280;36133;42.522;27.456;2023-02-16T06:59:10;102893.47;;;6.45;48.15
50250;BME280;36133;42.522;27.456;2023-02-16T07:01:36;102775.19;;;5.33;48.57
50250;BME280;36133;42.522;27.456;2023-02-16T07:04:02;102927.41;;;5.67;49.97
50250;BME280;36133;42.522;27.456;2023-02-16T07:06:28;102935.31;;;5.83;49.81
50250;BME280;36133;42.522;27.456;2023-02-16T07:08:53;102887.81;;;5.31;51.12
50250;BME280;36133;42.522;27.456;2023-02-16T07:11:20;102902.81;;;4.92;52.66
50250;BME280;36133;42.522;27.456;2023-02-16T07:13:45;102912.03;;;4.74;53.55
50250;BME280;36133;42.522;27.456;2023-02-16T07:16:12;102922.34;;;4.80;53.87
50250;BME280;36133;42.522;27.456;2023-02-16T07:18:37;102921.50;;;4.65;54.90
50250;BME280;36133;42.522;27.456;2023-02-16T07:21:03;102924.38;;;4.77;55.23
50250;BME280;36133;42.522;27.456;2023-02-16T07:23:29;102842.16;;;4.22;54.95
50250;BME280;36133;42.522;27.456;2023-02-16T07:25:54;102822.03;;;4.30;54.77
50250;BME280;36133;42.522;27.456;2023-02-16T07:28:20;102708.75;;;3.74;54.73
50250;BME280;36133;42.522;27.456;2023-02-16T07:30:45;102805.16;;;4.85;52.85
50250;BME280;36133;42.522;27.456;2023-02-16T07:33:17;102669.00;;;4.79;50.97
50250;BME280;36133;42.522;27.456;2023-02-16T07:35:43;102910.38;;;6.84;49.25
50250;BME280;36133;42.522;27.456;2023-02-16T07:38:09;102909.22;;;7.49;48.14
50250;BME280;36133;42.522;27.456;2023-02-16T07:40:35;102906.41;;;7.74;47.26
50250;BME280;36133;42.522;27.456;2023-02-16T07:43:02;102897.31;;;8.34;46.35
50250;BME280;36133;42.522;27.456;2023-02-16T07:45:28;102889.22;;;8.34;46.03
50250;BME280;36133;42.522;27.456;2023-02-16T07:47:54;102472.47;;;6.06;45.52
50250;BME280;36133;42.522;27.456;2023-02-16T07:50:20;102890.59;;;9.50;43.99
50250;BME280;36133;42.522;27.456;2023-02-16T07:52:45;102850.63;;;9.23;44.02
50250;BME280;36133;42.522;27.456;2023-02-16T07:55:11;102840.19;;;9.83;42.87
50250;BME280;36133;42.522;27.456;2023-02-16T07:57:37;102733.34;;;9.18;43.12
50250;BME280;36133;42.522;27.456;2023-02-16T08:00:05;102786.25;;;9.30;42.74
50250;BME280;36133;42.522;27.456;2023-02-16T08:02:32;102838.00;;;9.77;43.07
50250;BME280;36133;42.522;27.456;2023-02-16T08:04:58;102673.50;;;8.82;42.96
50250;BME280;36133;42.522;27.456;2023-02-16T08:07:24;102844.00;;;10.52;41.98
50250;BME280;36133;42.522;27.456;2023-02-16T08:09:50;102872.28;;;10.48;41.96
50250;BME280;36133;42.522;27.456;2023-02-16T08:12:16;102777.13;;;10.35;41.13
50250;BME280;36133;42.522;27.456;2023-02-16T08:14:42;102716.50;;;10.18;41.07
50250;BME280;36133;42.522;27.456;2023-02-16T08:17:08;102880.28;;;12.08;39.94
50250;BME280;36133;42.522;27.456;2023-02-16T08:19:34;102857.50;;;12.47;38.58
50250;BME280;36133;42.522;27.456;2023-02-16T08:22:01;102740.47;;;11.31;39.50
50250;BME280;36133;42.522;27.456;2023-02-16T08:24:27;102875.56;;;12.94;38.05
50250;BME280;36133;42.522;27.456;2023-02-16T08:26:54;102690.53;;;11.82;38.31
50250;BME280;36133;42.522;27.456;2023-02-16T08:29:21;102866.91;;;13.89;36.23
50250;BME280;36133;42.522;27.456;2023-02-16T08:31:51;102426.44;;;11.06;36.49
50250;BME280;36133;42.522;27.456;2023-02-16T08:34:18;102694.94;;;11.92;37.74
50250;BME280;36133;42.522;27.456;2023-02-16T08:36:46;102771.03;;;12.81;37.13
50250;BME280;36133;42.522;27.456;2023-02-16T08:39:17;102882.53;;;14.38;35.17
50250;BME280;36133;42.522;27.456;2023-02-16T08:41:45;102653.63;;;12.99;35.29
50250;BME280;36133;42.522;27.456;2023-02-16T08:44:13;102717.59;;;12.91;35.55
50250;BME280;36133;42.522;27.456;2023-02-16T08:46:42;102365.81;;;11.54;35.25
50250;BME280;36133;42.522;27.456;2023-02-16T08:49:09;102338.13;;;10.97;35.42
50250;BME280;36133;42.522;27.456;2023-02-16T08:51:39;102860.22;;;14.27;35.16
50250;BME280;36133;42.522;27.456;2023-02-16T08:54:05;102855.38;;;17.32;31.25
50250;BME280;36133;42.522;27.456;2023-02-16T08:56:35;102866.75;;;15.77;32.75
50250;BME280;36133;42.522;27.456;2023-02-16T08:59:01;102597.94;;;13.98;33.42
50250;BME280;36133;42.522;27.456;2023-02-16T09:01:27;102765.38;;;13.82;34.23
50250;BME280;36133;42.522;27.456;2023-02-16T09:03:53;102862.75;;;15.31;33.70
50250;BME280;36133;42.522;27.456;2023-02-16T09:06:20;102829.25;;;15.30;33.76
50250;BME280;36133;42.522;27.456;2023-02-16T09:08:51;102858.59;;;15.77;33.23
50250;BME280;36133;42.522;27.456;2023-02-16T09:11:20;102623.06;;;14.59;33.01
50250;BME280;36133;42.522;27.456;2023-02-16T09:13:46;102760.50;;;15.93;32.43
50250;BME280;36133;42.522;27.456;2023-02-16T09:16:15;102767.00;;;15.76;32.48
50250;BME280;36133;42.522;27.456;2023-02-16T09:18:42;102773.75;;;15.96;32.27
50250;BME280;36133;42.522;27.456;2023-02-16T09:21:14;102871.94;;;16.60;31.86
50250;BME280;36133;42.522;27.456;2023-02-16T09:23:49;102850.53;;;17.42;31.16
50250;BME280;36133;42.522;27.456;2023-02-16T09:26:17;102702.91;;;15.96;31.88
50250;BME280;36133;42.522;27.456;2023-02-16T09:28:43;102692.78;;;16.60;30.83
50250;BME280;36133;42.522;27.456;2023-02-16T09:31:20;102851.09;;;17.06;31.08
50250;BME280;36133;42.522;27.456;2023-02-16T09:33:59;102700.22;;;16.66;29.93
50250;BME280;36133;42.522;27.456;2023-02-16T09:36:25;102402.25;;;15.04;30.42
50250;BME280;36133;42.522;27.456;2023-02-16T09:38:52;102674.59;;;16.45;30.29
50250;BME280;36133;42.522;27.456;2023-02-16T09:46:57;102779.66;;;19.96;26.79
50250;BME280;36133;42.522;27.456;2023-02-16T09:49:32;102644.22;;;17.24;28.96
50250;BME280;36133;42.522;27.456;2023-02-16T09:52:11;102821.00;;;19.52;27.38
50250;BME280;36133;42.522;27.456;2023-02-16T09:54:59;102481.94;;;17.12;28.20
50250;BME280;36133;42.522;27.456;2023-02-16T09:57:56;102456.00;;;15.72;29.60
50250;BME280;36133;42.522;27.456;2023-02-16T10:03:09;102797.56;;;19.07;27.73
50250;BME280;36133;42.522;27.456;2023-02-16T10:06:02;102800.91;;;18.87;28.32
50250;BME280;36133;42.522;27.456;2023-02-16T10:08:37;102646.44;;;18.03;28.49
50250;BME280;36133;42.522;27.456;2023-02-16T10:13:59;102753.59;;;18.57;28.45
50250;BME280;36133;42.522;27.456;2023-02-16T10:16:30;102604.88;;;17.48;28.81
50250;BME280;36133;42.522;27.456;2023-02-16T10:18:59;102650.13;;;16.90;30.05
50250;BME280;36133;42.522;27.456;2023-02-16T10:21:28;102626.81;;;17.55;28.93
50250;BME280;36133;42.522;27.456;2023-02-16T10:23:57;102776.56;;;18.92;28.69
50250;BME280;36133;42.522;27.456;2023-02-16T10:26:45;102788.47;;;17.81;29.98
50250;BME280;36133;42.522;27.456;2023-02-16T10:29:18;102788.09;;;18.14;29.53
50250;BME280;36133;42.522;27.456;2023-02-16T10:32:24;102780.25;;;19.64;28.38
50250;BME280;36133;42.522;27.456;2023-02-16T10:35:12;102766.69;;;20.46;27.14
50250;BME280;36133;42.522;27.456;2023-02-16T10:40:30;102763.88;;;20.74;26.20
50250;BME280;36133;42.522;27.456;2023-02-16T10:45:45;102629.25;;;18.60;27.62
50250;BME280;36133;42.522;27.456;2023-02-16T10:48:11;102766.91;;;18.01;28.95
50250;BME280;36133;42.522;27.456;2023-02-16T10:50:50;102484.59;;;18.50;26.83
50250;BME280;36133;42.522;27.456;2023-02-16T10:55:57;102573.06;;;19.69;25.24
50250;BME280;36133;42.522;27.456;2023-02-16T10:58:25;102757.66;;;20.59;25.62
50250;BME280;36133;42.522;27.456;2023-02-16T11:01:35;102742.03;;;21.40;25.03
50250;BME280;36133;42.522;27.456;2023-02-16T11:04:02;102760.63;;;22.17;24.07
50250;BME280;36133;42.522;27.456;2023-02-16T11:06:28;102555.66;;;20.51;24.21
50250;BME280;36133;42.522;27.456;2023-02-16T11:08:58;102550.97;;;19.77;25.09
50250;BME280;36133;42.522;27.456;2023-02-16T11:11:36;102498.88;;;18.67;25.83
50250;BME280;36133;42.522;27.456;2023-02-16T11:14:17;102553.03;;;23.01;21.93
50250;BME280;36133;42.522;27.456;2023-02-16T11:16:45;102543.81;;;20.70;23.72
50250;BME280;36133;42.522;27.456;2023-02-16T11:19:20;102739.47;;;23.39;22.41
50250;BME280;36133;42.522;27.456;2023-02-16T11:21:47;102622.44;;;22.85;21.84
50250;BME280;36133;42.522;27.456;2023-02-16T11:24:26;102440.03;;;19.19;24.37
50250;BME280;36133;42.522;27.456;2023-02-16T11:29:39;102297.63;;;19.06;23.96
50250;BME280;36133;42.522;27.456;2023-02-16T11:32:10;102497.72;;;19.52;24.32
50250;BME280;36133;42.522;27.456;2023-02-16T11:37:46;102712.38;;;22.60;22.08
50250;BME280;36133;42.522;27.456;2023-02-16T11:39:55;102622.00;;;22.57;21.94
50250;BME280;36133;42.522;27.456;2023-02-16T11:42:29;102707.31;;;21.92;23.15
50250;BME280;36133;42.522;27.456;2023-02-16T11:44:57;102627.84;;;23.23;21.46
50250;BME280;36133;42.522;27.456;2023-02-16T11:50:17;102706.91;;;21.88;22.85
50250;BME280;36133;42.522;27.456;2023-02-16T11:52:46;102676.28;;;21.12;22.61
50250;BME280;36133;42.522;27.456;2023-02-16T11:55:28;102674.50;;;21.97;22.54
50250;BME280;36133;42.522;27.456;2023-02-16T12:01:14;102702.84;;;23.00;21.69
50250;BME280;36133;42.522;27.456;2023-02-16T12:18:11;102668.97;;;22.62;21.59
50250;BME280;36133;42.522;27.456;2023-02-16T12:28:58;102653.00;;;23.08;20.67
50250;BME280;36133;42.522;27.456;2023-02-16T12:40:33;102638.91;;;24.93;18.55
50250;BME280;36133;42.522;27.456;2023-02-16T12:45:41;102638.28;;;24.38;19.21
50250;BME280;36133;42.522;27.456;2023-02-16T12:50:40;102630.09;;;24.61;18.59
50250;BME280;36133;42.522;27.456;2023-02-16T12:53:45;102623.75;;;23.76;19.42
50250;BME280;36133;42.522;27.456;2023-02-16T12:56:20;102600.38;;;24.98;18.59
50250;BME280;36133;42.522;27.456;2023-02-16T12:58:50;102570.25;;;24.55;18.66
50250;BME280;36133;42.522;27.456;2023-02-16T13:01:24;102624.66;;;24.06;19.01
50250;BME280;36133;42.522;27.456;2023-02-16T13:04:05;102541.38;;;22.74;19.64
50250;BME280;36133;42.522;27.456;2023-02-16T13:06:50;102319.66;;;19.52;21.50
50250;BME280;36133;42.522;27.456;2023-02-16T13:12:32;102607.72;;;23.23;20.10
50250;BME280;36133;42.522;27.456;2023-02-16T13:15:25;102410.47;;;23.93;18.41
50250;BME280;36133;42.522;27.456;2023-02-16T13:18:01;102573.19;;;23.02;19.97
50250;BME280;36133;42.522;27.456;2023-02-16T13:20:29;102376.16;;;21.43;19.84
50250;BME280;36133;42.522;27.456;2023-02-16T13:29:21;102590.56;;;21.88;20.96
50250;BME280;36133;42.522;27.456;2023-02-16T13:38:03;102562.78;;;21.58;21.43
50250;BME280;36133;42.522;27.456;2023-02-16T13:40:50;102599.25;;;21.85;21.49
50250;BME280;36133;42.522;27.456;2023-02-16T13:45:54;102472.88;;;18.13;23.90
50250;BME280;36133;42.522;27.456;2023-02-16T13:48:29;102587.28;;;18.95;23.97
50250;BME280;36133;42.522;27.456;2023-02-16T13:51:01;102233.22;;;19.49;21.31
50250;BME280;36133;42.522;27.456;2023-02-16T13:53:35;102462.34;;;20.58;21.33
50250;BME280;36133;42.522;27.456;2023-02-16T13:58:48;102580.06;;;23.54;19.16
50250;BME280;36133;42.522;27.456;2023-02-16T14:01:36;102586.66;;;20.58;21.74
50250;BME280;36133;42.522;27.456;2023-02-16T14:04:58;102410.50;;;18.73;22.87
50250;BME280;36133;42.522;27.456;2023-02-16T14:07:35;102590.72;;;19.32;22.82
50250;BME280;36133;42.522;27.456;2023-02-16T14:30:26;102580.00;;;18.02;29.07
50250;BME280;36133;42.522;27.456;2023-02-16T14:33:00;102361.28;;;14.26;32.68
50250;BME280;36133;42.522;27.456;2023-02-16T14:35:32;102376.53;;;13.54;34.32
50250;BME280;36133;42.522;27.456;2023-02-16T14:40:59;102593.16;;;14.75;34.24
50250;BME280;36133;42.522;27.456;2023-02-16T14:43:45;102503.63;;;13.66;35.27
50250;BME280;36133;42.522;27.456;2023-02-16T14:57:56;102480.50;;;12.86;39.70
50250;BME280;36133;42.522;27.456;2023-02-16T15:03:01;102575.16;;;13.49;39.33
50250;BME280;36133;42.522;27.456;2023-02-16T15:05:33;102484.78;;;12.71;39.41
50250;BME280;36133;42.522;27.456;2023-02-16T15:08:20;102589.47;;;13.67;38.95
50250;BME280;36133;42.522;27.456;2023-02-16T15:10:51;102592.75;;;15.43;35.71
50250;BME280;36133;42.522;27.456;2023-02-16T15:13:23;102585.00;;;15.79;34.54
50250;BME280;36133;42.522;27.456;2023-02-16T15:15:52;102579.91;;;14.48;36.90
50250;BME280;36133;42.522;27.456;2023-02-16T15:18:27;102504.66;;;13.23;39.09
50250;BME280;36133;42.522;27.456;2023-02-16T15:20:55;102520.81;;;13.41;38.19
50250;BME280;36133;42.522;27.456;2023-02-16T15:23:32;102579.22;;;13.53;38.59
50250;BME280;36133;42.522;27.456;2023-02-16T15:26:01;102424.41;;;12.35;37.57
50250;BME280;36133;42.522;27.456;2023-02-16T15:28:35;102517.50;;;12.51;38.80
50250;BME280;36133;42.522;27.456;2023-02-16T15:31:04;102527.03;;;12.20;39.54
50250;BME280;36133;42.522;27.456;2023-02-16T15:33:38;102447.31;;;12.40;38.80
50250;BME280;36133;42.522;27.456;2023-02-16T15:36:10;102527.00;;;12.73;39.02
50250;BME280;36133;42.522;27.456;2023-02-16T15:38:55;102511.75;;;11.83;40.51